createdAt,value
2023-07-29T00:00:46.708Z,3.28
2023-07-29T00:03:14.048Z,3.30
2023-07-29T00:05:41.646Z,3.38
2023-07-29T00:08:09.017Z,3.50
2023-07-29T00:10:39.210Z,3.20
2023-07-29T00:13:07.026Z,3.58
2023-07-29T00:15:34.224Z,3.17
2023-07-29T00:18:01.451Z,2.92
2023-07-29T00:20:28.671Z,2.65
2023-07-29T00:22:56.212Z,3.25
2023-07-29T00:25:23.459Z,3.08
2023-07-29T00:27:50.735Z,3.30
2023-07-29T00:30:18.082Z,2.90
2023-07-29T00:32:45.394Z,3.28
2023-07-29T00:35:12.658Z,3.33
2023-07-29T00:37:39.946Z,3.80
2023-07-29T00:40:14.829Z,2.80
2023-07-29T00:42:43.548Z,2.97
2023-07-29T00:45:11.313Z,3.20
2023-07-29T00:47:39.381Z,3.35
2023-07-29T00:50:07.648Z,3.10
2023-07-29T00:52:34.837Z,3.03
2023-07-29T00:55:02.119Z,3.03
2023-07-29T00:57:30.879Z,3.53
2023-07-29T00:59:58.641Z,3.05
2023-07-29T01:02:26.175Z,3.20
2023-07-29T01:04:56.819Z,3.35
2023-07-29T01:07:36.332Z,3.15
2023-07-29T01:10:06.484Z,3.35
2023-07-29T01:12:47.119Z,3.15
2023-07-29T01:15:26.484Z,2.88
2023-07-29T01:17:58.270Z,3.17
2023-07-29T01:20:27.010Z,3.30
2023-07-29T01:22:54.514Z,3.10
2023-07-29T01:25:21.826Z,3.78
2023-07-29T01:27:52.869Z,3.28
2023-07-29T01:30:21.395Z,3.08
2023-07-29T01:33:12.560Z,3.53
2023-07-29T01:35:45.459Z,3.15
2023-07-29T01:38:16.515Z,2.80
2023-07-29T01:40:44.400Z,2.95
2023-07-29T01:43:12.124Z,2.85
2023-07-29T01:45:39.689Z,2.70
2023-07-29T01:48:07.369Z,3.08
2023-07-29T01:50:35.042Z,3.05
2023-07-29T01:53:02.331Z,3.20
2023-07-29T01:55:29.579Z,3.30
2023-07-29T01:57:56.844Z,3.35
2023-07-29T02:00:24.096Z,3.05
2023-07-29T02:02:51.387Z,2.88
2023-07-29T02:05:18.657Z,3.08
2023-07-29T02:07:45.882Z,3.15
2023-07-29T02:10:13.033Z,2.63
2023-07-29T02:12:40.308Z,3.38
2023-07-29T02:15:07.838Z,2.95
2023-07-29T02:17:35.052Z,2.90
2023-07-29T02:20:02.322Z,2.88
2023-07-29T02:22:29.675Z,2.75
2023-07-29T02:24:58.373Z,3.13
2023-07-29T02:27:28.104Z,2.85
2023-07-29T02:29:55.802Z,2.80
2023-07-29T02:32:23.431Z,3.33
2023-07-29T02:34:51.114Z,2.85
2023-07-29T02:37:18.428Z,3.13
2023-07-29T02:39:45.727Z,3.10
2023-07-29T02:42:12.979Z,3.20
2023-07-29T02:44:40.797Z,3.45
2023-07-29T02:47:08.023Z,2.70
2023-07-29T02:49:35.196Z,3.00
2023-07-29T02:52:02.679Z,2.60
2023-07-29T02:54:29.922Z,2.75
2023-07-29T02:56:57.088Z,2.88
2023-07-29T02:59:24.328Z,2.88
2023-07-29T03:01:51.586Z,3.03
2023-07-29T03:04:19.154Z,2.47
2023-07-29T03:06:46.366Z,3.03
2023-07-29T03:09:13.574Z,2.80
2023-07-29T03:11:41.180Z,3.45
2023-07-29T03:14:08.378Z,3.10
2023-07-29T03:16:35.996Z,2.63
2023-07-29T03:19:03.688Z,2.70
2023-07-29T03:21:30.923Z,3.00
2023-07-29T03:23:58.467Z,3.00
2023-07-29T03:26:26.749Z,2.95
2023-07-29T03:28:53.898Z,2.80
2023-07-29T03:31:21.140Z,3.25
2023-07-29T03:33:48.828Z,2.72
2023-07-29T03:36:16.694Z,2.67
2023-07-29T03:38:45.903Z,3.33
2023-07-29T03:41:13.866Z,2.78
2023-07-29T03:43:41.064Z,2.83
2023-07-29T03:46:11.741Z,2.90
2023-07-29T03:48:39.642Z,2.50
2023-07-29T03:51:06.823Z,2.80
2023-07-29T03:53:34.017Z,3.05
2023-07-29T03:56:01.376Z,2.70
2023-07-29T03:58:28.696Z,2.75
2023-07-29T04:00:55.866Z,2.83
2023-07-29T04:03:23.108Z,3.05
2023-07-29T04:05:50.387Z,2.85
2023-07-29T04:08:17.678Z,2.60
2023-07-29T04:10:44.847Z,2.97
2023-07-29T04:13:11.987Z,2.85
2023-07-29T04:15:39.158Z,3.42
2023-07-29T04:18:06.332Z,2.90
2023-07-29T04:20:34.861Z,2.97
2023-07-29T04:23:02.011Z,2.80
2023-07-29T04:25:29.508Z,3.17
2023-07-29T04:27:58.935Z,2.97
2023-07-29T04:30:26.207Z,3.10
2023-07-29T04:32:53.430Z,3.10
2023-07-29T04:35:20.696Z,2.80
2023-07-29T04:37:49.205Z,2.90
2023-07-29T04:40:16.704Z,3.05
2023-07-29T04:42:43.910Z,2.72
2023-07-29T04:45:11.226Z,3.00
2023-07-29T04:47:38.499Z,3.00
2023-07-29T04:50:05.956Z,3.00
2023-07-29T04:52:34.056Z,3.10
2023-07-29T04:55:01.396Z,3.30
2023-07-29T04:57:28.622Z,3.08
2023-07-29T04:59:55.836Z,2.70
2023-07-29T05:02:23.032Z,3.03
2023-07-29T05:04:50.246Z,2.88
2023-07-29T05:07:17.446Z,2.97
2023-07-29T05:09:44.701Z,2.88
2023-07-29T05:12:11.906Z,3.47
2023-07-29T05:14:39.143Z,3.10
2023-07-29T05:17:06.741Z,3.05
2023-07-29T05:19:33.920Z,3.28
2023-07-29T05:22:01.124Z,2.88
2023-07-29T05:24:28.370Z,3.03
2023-07-29T05:26:55.512Z,3.15
2023-07-29T05:29:22.738Z,2.97
2023-07-29T05:31:49.913Z,2.80
2023-07-29T05:34:17.116Z,3.08
2023-07-29T05:36:44.285Z,2.63
2023-07-29T05:39:13.253Z,3.50
2023-07-29T05:41:40.431Z,3.15
2023-07-29T05:44:10.592Z,3.00
2023-07-29T05:46:38.471Z,2.90
2023-07-29T05:49:05.850Z,3.10
2023-07-29T05:51:32.995Z,2.67
2023-07-29T05:54:00.266Z,3.00
2023-07-29T05:56:27.474Z,2.70
2023-07-29T05:58:54.685Z,3.08
2023-07-29T06:01:22.713Z,3.00
2023-07-29T06:03:50.283Z,2.80
2023-07-29T06:06:17.717Z,2.85
2023-07-29T06:08:44.934Z,2.80
2023-07-29T06:11:12.209Z,2.83
2023-07-29T06:13:39.374Z,2.72
2023-07-29T06:16:06.546Z,3.13
2023-07-29T06:18:33.730Z,2.58
2023-07-29T06:21:00.877Z,2.90
2023-07-29T06:23:28.545Z,2.80
2023-07-29T06:25:55.690Z,3.10
2023-07-29T06:28:22.921Z,2.70
2023-07-29T06:30:50.219Z,2.45
2023-07-29T06:33:17.527Z,2.85
2023-07-29T06:35:44.747Z,2.60
2023-07-29T06:38:11.919Z,3.40
2023-07-29T06:40:39.059Z,2.83
2023-07-29T06:43:06.239Z,2.78
2023-07-29T06:45:33.469Z,2.88
2023-07-29T06:48:00.743Z,2.90
2023-07-29T06:50:28.049Z,3.05
2023-07-29T06:52:55.273Z,3.05
2023-07-29T06:55:22.493Z,2.75
2023-07-29T06:57:49.657Z,2.92
2023-07-29T07:00:16.871Z,2.78
2023-07-29T07:02:44.853Z,2.80
2023-07-29T07:05:12.139Z,2.60
2023-07-29T07:07:39.469Z,3.13
2023-07-29T07:12:34.007Z,2.88
2023-07-29T07:15:01.993Z,3.60
2023-07-29T07:17:29.279Z,2.83
2023-07-29T07:19:56.824Z,3.00
2023-07-29T07:22:25.081Z,2.97
2023-07-29T07:24:52.355Z,2.90
2023-07-29T07:27:19.502Z,3.28
2023-07-29T07:29:46.669Z,3.67
2023-07-29T07:32:13.852Z,2.67
2023-07-29T07:34:41.032Z,2.92
2023-07-29T07:37:08.228Z,2.92
2023-07-29T07:39:35.442Z,3.25
2023-07-29T07:42:02.707Z,3.22
2023-07-29T07:44:29.913Z,3.28
2023-07-29T07:46:57.082Z,2.90
2023-07-29T07:49:24.525Z,2.67
2023-07-29T07:51:51.847Z,3.88
2023-07-29T07:54:19.148Z,3.10
2023-07-29T07:56:46.320Z,3.30
2023-07-29T07:59:15.333Z,2.90
2023-07-29T08:01:43.997Z,3.38
2023-07-29T08:04:11.195Z,3.22
2023-07-29T08:06:38.892Z,3.75
2023-07-29T08:09:06.417Z,3.03
2023-07-29T08:11:33.778Z,3.00
2023-07-29T08:14:00.998Z,2.83
2023-07-29T08:16:28.366Z,2.90
2023-07-29T08:18:55.702Z,3.00
2023-07-29T08:21:22.878Z,3.38
2023-07-29T08:23:50.401Z,2.72
2023-07-29T08:26:17.919Z,2.97
2023-07-29T08:28:45.157Z,3.15
2023-07-29T08:31:12.494Z,3.78
2023-07-29T08:33:39.744Z,2.88
2023-07-29T08:36:07.029Z,3.05
2023-07-29T08:38:34.240Z,3.00
2023-07-29T08:41:16.762Z,2.83
2023-07-29T08:43:48.160Z,3.25
2023-07-29T08:46:17.275Z,3.30
2023-07-29T08:48:44.990Z,3.08
2023-07-29T08:51:12.768Z,3.10
2023-07-29T08:53:40.729Z,3.50
2023-07-29T08:56:08.650Z,3.67
2023-07-29T08:58:36.873Z,3.15
2023-07-29T09:01:04.148Z,3.33
2023-07-29T09:03:31.650Z,3.22
2023-07-29T09:05:59.833Z,3.17
2023-07-29T09:08:30.566Z,3.22
2023-07-29T09:10:57.875Z,3.22
2023-07-29T09:13:25.340Z,2.78
2023-07-29T09:15:55.904Z,2.83
2023-07-29T09:18:23.329Z,3.03
2023-07-29T09:20:51.733Z,3.38
2023-07-29T09:23:19.350Z,3.03
2023-07-29T09:25:49.769Z,3.10
2023-07-29T09:28:17.917Z,2.85
2023-07-29T09:30:47.455Z,3.15
2023-07-29T09:33:15.273Z,3.00
2023-07-29T09:35:42.587Z,3.13
2023-07-29T09:38:09.899Z,3.03
2023-07-29T09:40:40.998Z,3.13
2023-07-29T09:43:09.221Z,2.90
2023-07-29T09:45:37.131Z,2.85
2023-07-29T09:48:06.373Z,3.30
2023-07-29T09:50:48.732Z,2.97
2023-07-29T09:53:16.337Z,2.78
2023-07-29T09:55:49.604Z,2.75
2023-07-29T09:58:21.033Z,3.58
2023-07-29T10:00:48.301Z,3.17
2023-07-29T10:03:16.224Z,3.25
2023-07-29T10:05:43.816Z,2.72
2023-07-29T10:08:12.152Z,2.80
2023-07-29T10:10:39.425Z,2.80
2023-07-29T10:13:06.687Z,3.33
2023-07-29T10:15:34.054Z,3.65
2023-07-29T10:18:01.465Z,3.30
2023-07-29T10:20:28.653Z,3.22
2023-07-29T10:22:58.024Z,3.38
2023-07-29T10:25:26.506Z,3.40
2023-07-29T10:28:06.899Z,2.97
2023-07-29T10:30:34.647Z,3.05
2023-07-29T10:33:04.980Z,3.22
2023-07-29T10:35:36.812Z,3.40
2023-07-29T10:38:05.722Z,3.45
2023-07-29T10:40:46.363Z,3.30
2023-07-29T10:43:15.862Z,3.10
2023-07-29T10:45:43.851Z,3.00
2023-07-29T10:48:15.331Z,3.50
2023-07-29T10:50:42.592Z,2.80
2023-07-29T10:53:09.785Z,2.85
2023-07-29T10:55:38.161Z,3.15
2023-07-29T10:58:09.940Z,3.15
2023-07-29T11:00:37.281Z,3.20
2023-07-29T11:03:05.443Z,2.80
2023-07-29T11:05:46.164Z,3.22
2023-07-29T11:08:20.466Z,3.03
2023-07-29T11:10:59.511Z,3.10
2023-07-29T11:13:30.379Z,3.15
2023-07-29T11:15:59.544Z,3.35
2023-07-29T11:18:31.069Z,3.15
2023-07-29T11:20:58.581Z,3.38
2023-07-29T11:23:30.490Z,2.90
2023-07-29T11:25:58.311Z,3.10
2023-07-29T11:28:26.269Z,3.47
2023-07-29T11:30:53.963Z,3.10
2023-07-29T11:33:26.203Z,3.30
2023-07-29T11:35:54.039Z,3.42
2023-07-29T11:38:22.038Z,3.30
2023-07-29T11:40:55.925Z,3.22
2023-07-29T11:43:23.094Z,3.75
2023-07-29T11:45:52.442Z,3.25
2023-07-29T11:48:19.867Z,3.33
2023-07-29T11:50:47.439Z,3.75
2023-07-29T11:53:17.400Z,3.20
2023-07-29T11:55:44.993Z,3.28
2023-07-29T11:58:12.174Z,3.78
2023-07-29T12:00:40.280Z,3.10
2023-07-29T12:03:09.794Z,3.03
2023-07-29T12:05:37.193Z,3.10
2023-07-29T12:08:04.501Z,2.95
2023-07-29T12:10:31.831Z,3.00
2023-07-29T12:12:59.236Z,3.67
2023-07-29T12:15:30.366Z,3.08
2023-07-29T12:17:58.400Z,3.10
2023-07-29T12:20:26.348Z,3.10
2023-07-29T12:23:03.684Z,3.47
2023-07-29T12:25:31.309Z,3.28
2023-07-29T12:27:58.820Z,2.83
2023-07-29T12:30:27.143Z,3.30
2023-07-29T12:32:54.392Z,3.67
2023-07-29T12:35:21.613Z,2.90
2023-07-29T12:37:48.793Z,3.78
2023-07-29T12:40:25.380Z,3.70
2023-07-29T12:42:52.900Z,3.55
2023-07-29T12:45:20.598Z,3.50
2023-07-29T12:47:47.858Z,3.25
2023-07-29T12:50:15.167Z,3.25
2023-07-29T12:52:42.363Z,3.35
2023-07-29T12:55:14.026Z,3.60
2023-07-29T12:57:43.850Z,2.90
2023-07-29T13:00:11.303Z,3.08
2023-07-29T13:02:38.630Z,3.60
2023-07-29T13:05:06.137Z,3.00
2023-07-29T13:07:33.292Z,3.13
2023-07-29T13:10:00.453Z,3.53
2023-07-29T13:12:27.813Z,3.13
2023-07-29T13:14:54.965Z,3.50
2023-07-29T13:17:23.096Z,3.67
2023-07-29T13:19:50.624Z,3.63
2023-07-29T13:22:18.004Z,3.58
2023-07-29T13:24:45.228Z,3.30
2023-07-29T13:27:12.405Z,3.40
2023-07-29T13:29:39.560Z,3.63
2023-07-29T13:32:07.073Z,3.45
2023-07-29T13:34:35.993Z,3.72
2023-07-29T13:37:03.360Z,3.25
2023-07-29T13:39:30.552Z,3.35
2023-07-29T13:41:57.837Z,3.60
2023-07-29T13:44:24.986Z,3.33
2023-07-29T13:46:52.128Z,3.28
2023-07-29T13:49:19.379Z,3.53
2023-07-29T13:51:46.696Z,3.20
2023-07-29T13:54:13.899Z,3.47
2023-07-29T13:56:41.085Z,3.40
2023-07-29T13:59:10.407Z,3.20
2023-07-29T14:01:37.609Z,3.53
2023-07-29T14:04:04.964Z,3.20
2023-07-29T14:06:45.062Z,3.08
2023-07-29T14:09:13.901Z,3.47
2023-07-29T14:11:41.221Z,3.40
2023-07-29T14:14:09.069Z,3.10
2023-07-29T14:16:36.712Z,3.38
2023-07-29T14:19:04.405Z,3.42
2023-07-29T14:21:31.622Z,3.38
2023-07-29T14:23:58.995Z,3.15
2023-07-29T14:26:26.393Z,3.13
2023-07-29T14:28:53.651Z,3.20
2023-07-29T14:31:20.903Z,3.28
2023-07-29T14:33:48.138Z,3.70
2023-07-29T14:36:15.343Z,3.40
2023-07-29T14:38:42.558Z,3.15
2023-07-29T14:41:09.977Z,3.60
2023-07-29T14:43:37.292Z,3.58
2023-07-29T14:46:04.622Z,3.30
2023-07-29T14:48:31.927Z,3.33
2023-07-29T14:50:59.110Z,3.58
2023-07-29T14:53:26.389Z,3.38
2023-07-29T14:55:54.011Z,3.30
2023-07-29T14:58:21.244Z,3.40
2023-07-29T15:00:48.776Z,3.20
2023-07-29T15:03:16.077Z,3.47
2023-07-29T15:05:43.330Z,3.50
2023-07-29T15:08:10.547Z,3.38
2023-07-29T15:10:37.766Z,3.05
2023-07-29T15:13:04.917Z,3.40
2023-07-29T15:15:32.093Z,3.70
2023-07-29T15:17:59.347Z,3.00
2023-07-29T15:20:26.584Z,3.22
2023-07-29T15:22:53.743Z,3.60
2023-07-29T15:25:20.922Z,3.88
2023-07-29T15:27:48.359Z,3.08
2023-07-29T15:30:15.643Z,2.90
2023-07-29T15:32:43.411Z,3.33
2023-07-29T15:35:10.691Z,2.97
2023-07-29T15:37:37.870Z,3.13
2023-07-29T15:40:05.652Z,3.42
2023-07-29T15:42:33.228Z,3.40
2023-07-29T15:45:01.051Z,3.53
2023-07-29T15:47:28.229Z,3.70
2023-07-29T15:49:55.398Z,3.38
2023-07-29T15:52:22.689Z,4.07
2023-07-29T15:54:51.085Z,3.38
2023-07-29T15:57:18.333Z,3.40
2023-07-29T15:59:45.517Z,3.75
2023-07-29T16:02:12.766Z,3.22
2023-07-29T16:04:40.021Z,3.58
2023-07-29T16:07:07.345Z,3.33
2023-07-29T16:09:34.517Z,3.22
2023-07-29T16:12:02.902Z,3.80
2023-07-29T16:14:30.139Z,3.13
2023-07-29T16:16:57.272Z,2.80
2023-07-29T16:19:31.430Z,3.17
2023-07-29T16:21:58.704Z,3.38
2023-07-29T16:24:25.966Z,3.40
2023-07-29T16:26:53.203Z,3.40
2023-07-29T16:29:20.399Z,3.42
2023-07-29T16:31:48.456Z,3.47
2023-07-29T16:34:16.916Z,3.20
2023-07-29T16:36:44.106Z,3.33
2023-07-29T16:39:11.268Z,3.17
2023-07-29T16:44:08.479Z,3.25
2023-07-29T16:46:35.978Z,3.10
2023-07-29T16:49:05.930Z,2.85
2023-07-29T16:51:33.324Z,3.45
2023-07-29T16:54:00.486Z,3.38
2023-07-29T16:56:27.633Z,3.35
2023-07-29T16:58:54.847Z,3.63
2023-07-29T17:01:22.246Z,3.10
2023-07-29T17:03:49.495Z,3.58
2023-07-29T17:06:16.780Z,3.70
2023-07-29T17:08:43.925Z,3.45
2023-07-29T17:11:11.172Z,3.15
2023-07-29T17:13:38.588Z,3.55
2023-07-29T17:16:05.889Z,3.58
2023-07-29T17:18:34.149Z,3.60
2023-07-29T17:21:01.547Z,3.28
2023-07-29T17:23:30.478Z,3.30
2023-07-29T17:25:59.638Z,3.47
2023-07-29T17:28:26.879Z,3.47
2023-07-29T17:30:54.107Z,3.33
2023-07-29T17:33:21.398Z,3.17
2023-07-29T17:35:48.563Z,3.55
2023-07-29T17:38:15.769Z,3.38
2023-07-29T17:40:42.998Z,3.35
2023-07-29T17:43:10.283Z,3.75
2023-07-29T17:45:45.766Z,3.65
2023-07-29T17:50:40.386Z,3.45
2023-07-29T17:53:07.550Z,3.40
2023-07-29T17:55:41.054Z,3.10
2023-07-29T17:58:08.202Z,3.88
2023-07-29T18:00:35.565Z,3.60
2023-07-29T18:03:03.130Z,3.40
2023-07-29T18:05:30.515Z,3.35
2023-07-29T18:07:57.711Z,3.40
2023-07-29T18:10:26.561Z,3.88
2023-07-29T18:12:53.806Z,3.50
2023-07-29T18:15:21.071Z,3.75
2023-07-29T18:17:48.379Z,3.60
2023-07-29T18:20:15.580Z,3.95
2023-07-29T18:22:43.579Z,3.95
2023-07-29T18:25:11.166Z,3.30
2023-07-29T18:27:38.880Z,3.50
2023-07-29T18:30:06.345Z,3.47
2023-07-29T18:32:33.590Z,3.53
2023-07-29T18:35:00.889Z,3.30
2023-07-29T18:37:28.189Z,3.47
2023-07-29T18:39:55.348Z,3.42
2023-07-29T18:42:22.536Z,3.55
2023-07-29T18:44:49.740Z,3.35
2023-07-29T18:47:17.057Z,3.38
2023-07-29T18:49:44.410Z,3.53
2023-07-29T18:52:11.695Z,3.13
2023-07-29T18:54:40.391Z,3.42
2023-07-29T18:57:07.954Z,3.35
2023-07-29T18:59:35.179Z,3.40
2023-07-29T19:02:02.398Z,4.00
2023-07-29T19:04:29.639Z,3.67
2023-07-29T19:06:56.911Z,3.40
2023-07-29T19:09:26.357Z,3.70
2023-07-29T19:11:53.973Z,3.67
2023-07-29T19:14:22.194Z,3.38
2023-07-29T19:16:49.500Z,3.65
2023-07-29T19:19:16.704Z,3.55
2023-07-29T19:21:43.896Z,3.40
2023-07-29T19:24:11.134Z,3.40
2023-07-29T19:26:38.596Z,3.40
2023-07-29T19:29:06.117Z,3.67
2023-07-29T19:31:33.405Z,3.58
2023-07-29T19:34:00.604Z,4.03
2023-07-29T19:36:33.392Z,3.83
2023-07-29T19:39:00.647Z,3.00
2023-07-29T19:41:28.469Z,3.40
2023-07-29T19:44:00.525Z,3.55
2023-07-29T19:46:38.455Z,3.40
2023-07-29T19:49:06.438Z,3.90
2023-07-29T19:51:33.645Z,3.97
2023-07-29T19:54:00.805Z,3.80
2023-07-29T19:56:28.044Z,3.40
2023-07-29T19:58:55.293Z,3.30
2023-07-29T20:01:22.571Z,3.50
2023-07-29T20:03:49.836Z,3.45
2023-07-29T20:06:17.042Z,3.28
2023-07-29T20:08:44.563Z,3.38
2023-07-29T20:11:11.817Z,3.17
2023-07-29T20:13:39.018Z,3.20
2023-07-29T20:16:06.517Z,3.25
2023-07-29T20:18:34.256Z,3.65
2023-07-29T20:21:01.406Z,3.80
2023-07-29T20:23:31.007Z,3.40
2023-07-29T20:25:58.421Z,3.33
2023-07-29T20:28:25.628Z,3.28
2023-07-29T20:30:57.756Z,3.30
2023-07-29T20:33:25.300Z,3.42
2023-07-29T20:35:59.588Z,3.40
2023-07-29T20:38:26.936Z,3.40
2023-07-29T20:40:54.947Z,3.63
2023-07-29T20:43:22.706Z,3.47
2023-07-29T20:45:50.336Z,3.60
2023-07-29T20:48:18.165Z,3.50
2023-07-29T20:50:46.985Z,3.40
2023-07-29T20:53:14.547Z,3.85
2023-07-29T20:55:43.338Z,3.38
2023-07-29T20:58:10.929Z,3.30
2023-07-29T21:00:38.802Z,3.40
2023-07-29T21:03:06.311Z,3.58
2023-07-29T21:05:36.692Z,3.50
2023-07-29T21:08:03.987Z,3.92
2023-07-29T21:10:32.557Z,3.85
2023-07-29T21:12:59.776Z,3.47
2023-07-29T21:15:26.929Z,3.70
2023-07-29T21:17:54.278Z,4.30
2023-07-29T21:20:21.679Z,4.07
2023-07-29T21:22:48.940Z,3.90
2023-07-29T21:25:16.288Z,3.63
2023-07-29T21:27:43.552Z,3.70
2023-07-29T21:30:10.806Z,4.10
2023-07-29T21:32:38.063Z,3.78
2023-07-29T21:35:05.426Z,3.90
2023-07-29T21:37:36.694Z,3.72
2023-07-29T21:40:05.115Z,3.60
2023-07-29T21:42:33.541Z,4.05
2023-07-29T21:45:00.858Z,4.03
2023-07-29T21:47:28.106Z,3.80
2023-07-29T21:49:55.547Z,3.80
2023-07-29T21:52:22.799Z,4.30
2023-07-29T21:54:50.262Z,3.85
2023-07-29T21:57:17.477Z,3.70
2023-07-29T21:59:44.896Z,3.70
2023-07-29T22:02:12.210Z,3.80
2023-07-29T22:04:39.669Z,3.67
2023-07-29T22:07:07.071Z,3.75
2023-07-29T22:09:34.277Z,3.92
2023-07-29T22:12:01.526Z,3.67
2023-07-29T22:14:29.816Z,3.72
2023-07-29T22:16:56.970Z,3.38
2023-07-29T22:19:24.210Z,3.83
2023-07-29T22:21:51.600Z,3.97
2023-07-29T22:24:19.452Z,3.80
2023-07-29T22:26:46.830Z,3.72
2023-07-29T22:29:17.411Z,4.00
2023-07-29T22:31:44.697Z,3.75
2023-07-29T22:34:11.918Z,3.78
2023-07-29T22:36:39.095Z,4.07
2023-07-29T22:39:06.285Z,3.80
2023-07-29T22:41:33.440Z,4.22
2023-07-29T22:44:00.900Z,4.03
2023-07-29T22:46:28.087Z,3.70
2023-07-29T22:48:55.300Z,3.50
2023-07-29T22:51:22.561Z,4.20
2023-07-29T22:53:49.743Z,3.47
2023-07-29T22:56:16.919Z,4.00
2023-07-29T22:58:44.134Z,4.30
2023-07-29T23:01:11.352Z,3.88
2023-07-29T23:03:38.687Z,4.13
2023-07-29T23:06:06.006Z,3.88
2023-07-29T23:08:33.211Z,4.30
2023-07-29T23:11:04.094Z,3.90
2023-07-29T23:13:31.511Z,4.15
2023-07-29T23:16:02.812Z,4.15
2023-07-29T23:18:30.523Z,3.80
2023-07-29T23:20:57.796Z,3.75
2023-07-29T23:23:25.000Z,4.03
2023-07-29T23:25:52.494Z,3.97
2023-07-29T23:28:22.465Z,3.90
2023-07-29T23:30:49.638Z,3.80
2023-07-29T23:33:16.784Z,3.70
2023-07-29T23:35:44.416Z,4.20
2023-07-29T23:38:11.705Z,4.15
2023-07-29T23:40:38.861Z,3.97
2023-07-29T23:43:06.157Z,3.83
2023-07-29T23:45:33.558Z,4.10
2023-07-29T23:48:00.880Z,4.30
2023-07-29T23:50:28.140Z,3.63
2023-07-29T23:52:55.307Z,3.85
2023-07-29T23:55:22.502Z,3.90
2023-07-29T23:57:49.727Z,3.78
